Time;durP1;ratioP1;P1;durP2;ratioP2;P2;SDS_P1;SDS_P2;PMS_P1;PMS_P2;Temp;Humidity;BMP_temperature;BMP_pressure;BME280_temperature;BME280_humidity;BME280_pressure;Samples;Min_cycle;Max_cycle;Signal;HPM_P1;HPM_P2
2023/01/07 00:02:41;;;;;;;17.87;9.87;;;;;9.40;96801.00;;;;8260744;28;20226;-70
2023/01/07 00:07:11;;;;;;;18.88;8.40;;;;;9.40;96791.00;;;;8261421;28;20226;-70
2023/01/07 00:11:16;;;;;;;17.65;8.52;;;;;9.40;96799.00;;;;8261696;28;20194;-70
2023/01/07 00:15:22;;;;;;;17.13;8.73;;;;;9.30;96800.00;;;;8261806;28;20199;-70
2023/01/07 00:19:27;;;;;;;18.00;9.32;;;;;9.30;96803.00;;;;8263679;28;20245;-71
2023/01/07 00:23:36;;;;;;;22.85;10.18;;;;;9.30;96794.00;;;;8264475;28;20194;-71
2023/01/07 00:28:09;;;;;;;20.70;9.38;;;;;9.30;96788.00;;;;8267581;28;20219;-70
2023/01/07 00:32:12;;;;;;;18.02;9.32;;;;;9.40;96785.00;;;;8267603;28;20285;-70
2023/01/07 00:36:18;;;;;;;14.85;8.65;;;;;9.40;96786.00;;;;8267199;28;20202;-71
2023/01/07 00:40:26;;;;;;;14.68;8.85;;;;;9.40;96782.00;;;;8267476;28;20528;-70
2023/01/07 00:49:36;;;;;;;18.70;8.30;;;;;9.30;96776.00;;;;8266679;28;20262;-70
2023/01/07 00:53:39;;;;;;;17.80;8.60;;;;;9.30;96776.00;;;;8266246;28;20249;-70
2023/01/07 00:57:45;;;;;;;19.87;8.60;;;;;9.30;96765.00;;;;8267042;28;20202;-70
2023/01/07 01:01:51;;;;;;;16.65;8.65;;;;;9.20;96778.00;;;;8266437;28;20332;-70
2023/01/07 01:05:55;;;;;;;19.88;10.18;;;;;9.10;96770.00;;;;8266470;28;20195;-70
2023/01/07 01:10:32;;;;;;;18.83;9.00;;;;;9.10;96774.00;;;;8266064;28;20230;-70
2023/01/07 01:14:38;;;;;;;17.75;9.52;;;;;9.10;96767.00;;;;8266659;28;20187;-70
2023/01/07 01:18:42;;;;;;;22.33;10.13;;;;;9.10;96770.00;;;;8265797;28;20202;-71
2023/01/07 01:22:46;;;;;;;17.67;9.10;;;;;9.20;96769.00;;;;8265886;28;20199;-71
2023/01/07 01:26:50;;;;;;;18.67;8.97;;;;;9.20;96767.00;;;;8265761;28;20202;-71
2023/01/07 01:30:58;;;;;;;18.88;9.02;;;;;9.20;96779.00;;;;8265323;28;20218;-71
2023/01/07 01:35:11;;;;;;;20.63;10.60;;;;;9.20;96773.00;;;;8267001;28;20241;-71
2023/01/07 01:39:15;;;;;;;24.40;10.45;;;;;9.20;96772.00;;;;8266270;28;20587;-71
2023/01/07 01:43:30;;;;;;;20.00;9.60;;;;;9.20;96768.00;;;;8264911;28;20356;-71
2023/01/07 01:47:38;;;;;;;23.52;9.77;;;;;9.20;96770.00;;;;8264760;28;20230;-71
2023/01/07 01:51:46;;;;;;;19.50;9.57;;;;;9.30;96767.00;;;;8265761;28;20624;-71
2023/01/07 01:56:02;;;;;;;22.83;10.57;;;;;9.30;96762.00;;;;8265148;28;20202;-71
2023/01/07 02:00:27;;;;;;;16.30;9.02;;;;;9.30;96762.00;;;;8265273;28;20253;-71
2023/01/07 02:04:37;;;;;;;16.10;8.27;;;;;9.30;96754.00;;;;8269853;28;20226;-71
2023/01/07 02:09:08;;;;;;;20.77;9.83;;;;;9.20;96758.00;;;;8268164;28;20225;-71
2023/01/07 02:13:46;;;;;;;19.23;9.23;;;;;9.20;96749.00;;;;8269903;28;20199;-70
2023/01/07 02:18:06;;;;;;;16.40;8.55;;;;;9.20;96752.00;;;;8268635;28;20249;-71
2023/01/07 02:22:25;;;;;;;20.90;10.10;;;;;9.20;96751.00;;;;8268993;28;20636;-71
2023/01/07 02:27:07;;;;;;;19.20;9.97;;;;;9.30;96744.00;;;;8268728;28;20206;-71
2023/01/07 02:31:42;;;;;;;20.63;8.98;;;;;9.30;96733.00;;;;8268081;28;20226;-71
2023/01/07 02:36:20;;;;;;;20.40;10.33;;;;;9.20;96725.00;;;;8268261;28;20670;-70
2023/01/07 02:40:30;;;;;;;20.13;9.87;;;;;9.30;96715.00;;;;8267043;28;20200;-70
2023/01/07 02:44:44;;;;;;;19.67;10.77;;;;;9.30;96715.00;;;;8268527;28;20199;-70
2023/01/07 02:48:48;;;;;;;19.45;9.82;;;;;9.30;96712.00;;;;8267738;28;20226;-70
2023/01/07 02:53:23;;;;;;;17.33;9.83;;;;;9.30;96708.00;;;;8268762;28;20200;-71
2023/01/07 02:58:05;;;;;;;19.60;10.33;;;;;9.30;96713.00;;;;8267647;28;20198;-70
2023/01/07 03:02:26;;;;;;;15.70;9.15;;;;;9.30;96707.00;;;;8210120;23;20716;-72
2023/01/07 03:06:53;;;;;;;18.35;10.43;;;;;9.30;96711.00;;;;8213898;28;20204;-74
2023/01/07 03:10:59;;;;;;;21.02;10.95;;;;;9.40;96706.00;;;;8219639;28;20712;-73
2023/01/07 03:15:10;;;;;;;22.38;11.00;;;;;9.40;96695.00;;;;8221957;28;20203;-73
2023/01/07 03:19:17;;;;;;;17.98;10.13;;;;;9.40;96686.00;;;;8221694;28;21028;-74
2023/01/07 03:23:27;;;;;;;22.17;10.85;;;;;9.40;96689.00;;;;8219867;28;20588;-76
2023/01/07 03:27:35;;;;;;;23.70;11.67;;;;;9.40;96685.00;;;;8208042;28;20270;-74
2023/01/07 03:31:49;;;;;;;23.83;12.18;;;;;9.40;96679.00;;;;8220647;28;20736;-74
2023/01/07 03:36:00;;;;;;;23.77;11.97;;;;;9.40;96684.00;;;;8220950;28;20200;-75
2023/01/07 03:40:09;;;;;;;26.57;13.20;;;;;9.50;96677.00;;;;8221032;28;20561;-76
2023/01/07 03:44:14;;;;;;;27.02;13.15;;;;;9.50;96666.00;;;;8221557;28;20717;-76
2023/01/07 03:48:18;;;;;;;24.13;12.20;;;;;9.50;96667.00;;;;8219572;28;20206;-75
2023/01/07 03:52:24;;;;;;;24.63;12.07;;;;;9.60;96670.00;;;;8220029;28;20585;-75
2023/01/07 03:56:27;;;;;;;26.88;12.63;;;;;9.60;96668.00;;;;8228549;28;20208;-71
2023/01/07 04:00:39;;;;;;;22.80;12.23;;;;;9.60;96658.00;;;;8217943;28;20203;-74
2023/01/07 04:04:45;;;;;;;28.05;12.25;;;;;9.50;96656.00;;;;8187445;29;20208;-73
2023/01/07 04:08:49;;;;;;;23.98;11.63;;;;;9.50;96654.00;;;;8187735;29;20208;-75
2023/01/07 04:12:54;;;;;;;25.60;11.77;;;;;9.50;96652.00;;;;8186693;29;20680;-74
2023/01/07 04:16:58;;;;;;;23.20;12.32;;;;;9.40;96637.00;;;;8186152;28;20794;-77
2023/01/07 04:21:01;;;;;;;21.13;11.60;;;;;9.40;96638.00;;;;8186363;28;20204;-74
2023/01/07 04:25:05;;;;;;;24.73;12.40;;;;;9.40;96625.00;;;;8189318;28;20232;-75
2023/01/07 04:29:12;;;;;;;24.40;11.48;;;;;9.40;96629.00;;;;8188076;29;20223;-75
2023/01/07 04:33:23;;;;;;;24.33;11.90;;;;;9.40;96629.00;;;;8188566;29;20200;-74
2023/01/07 04:37:29;;;;;;;23.70;11.70;;;;;9.40;96631.00;;;;8185547;29;20215;-72
2023/01/07 04:41:34;;;;;;;21.55;12.05;;;;;9.40;96622.00;;;;8166955;29;20263;-74
2023/01/07 04:45:38;;;;;;;20.80;11.07;;;;;9.40;96612.00;;;;8187742;29;20503;-75
2023/01/07 04:49:49;;;;;;;24.80;12.25;;;;;9.40;96612.00;;;;8188950;28;20724;-74
2023/01/07 04:53:52;;;;;;;21.98;11.90;;;;;9.40;96621.00;;;;8181759;29;20201;-72
2023/01/07 04:57:59;;;;;;;22.80;11.83;;;;;9.40;96616.00;;;;8188715;28;20244;-75
2023/01/07 05:02:03;;;;;;;23.20;11.57;;;;;9.40;96619.00;;;;8187760;28;20235;-74
2023/01/07 05:06:08;;;;;;;26.63;11.93;;;;;9.50;96608.00;;;;8188196;28;20483;-73
2023/01/07 05:10:12;;;;;;;21.88;11.93;;;;;9.50;96605.00;;;;8182589;28;20228;-74
2023/01/07 05:14:15;;;;;;;22.25;11.00;;;;;9.50;96598.00;;;;8179258;28;20722;-72
2023/01/07 05:18:19;;;;;;;22.00;11.73;;;;;9.50;96598.00;;;;8186449;29;20951;-71
2023/01/07 05:22:24;;;;;;;21.23;11.97;;;;;9.50;96595.00;;;;8188976;28;20205;-72
2023/01/07 05:26:29;;;;;;;21.38;11.10;;;;;9.50;96596.00;;;;8191375;29;20251;-74
2023/01/07 05:30:34;;;;;;;21.10;12.15;;;;;9.50;96589.00;;;;8192437;29;20305;-75
2023/01/07 05:34:37;;;;;;;22.13;10.98;;;;;9.50;96582.00;;;;8191013;29;20211;-73
2023/01/07 05:38:50;;;;;;;23.73;12.45;;;;;9.50;96579.00;;;;8186885;29;20216;-72
2023/01/07 05:42:54;;;;;;;24.70;12.43;;;;;9.50;96572.00;;;;8188495;29;20251;-73
2023/01/07 05:46:57;;;;;;;21.38;12.38;;;;;9.50;96570.00;;;;8192884;28;21093;-74
2023/01/07 05:51:02;;;;;;;23.98;12.65;;;;;9.50;96564.00;;;;8191640;28;20227;-73
2023/01/07 05:55:08;;;;;;;24.50;12.88;;;;;9.50;96563.00;;;;8188373;29;20255;-72
2023/01/07 05:59:11;;;;;;;24.05;13.00;;;;;9.50;96561.00;;;;8189194;29;20212;-71
2023/01/07 06:03:18;;;;;;;28.00;13.55;;;;;9.60;96559.00;;;;8191114;28;21008;-73
2023/01/07 06:07:21;;;;;;;26.55;12.98;;;;;9.50;96556.00;;;;8192098;28;20207;-74
2023/01/07 06:11:28;;;;;;;24.23;12.52;;;;;9.50;96557.00;;;;8187540;28;20566;-72
2023/01/07 06:15:32;;;;;;;21.60;11.90;;;;;9.50;96555.00;;;;8186847;28;20204;-74
2023/01/07 06:19:38;;;;;;;21.80;12.13;;;;;9.40;96563.00;;;;8182320;28;20416;-74
2023/01/07 06:23:43;;;;;;;23.25;11.90;;;;;9.40;96559.00;;;;8190615;29;20212;-76
2023/01/07 06:27:50;;;;;;;22.40;12.00;;;;;9.40;96554.00;;;;8189936;29;20240;-72
2023/01/07 06:31:53;;;;;;;23.38;11.50;;;;;9.40;96549.00;;;;8189896;29;20223;-75
2023/01/07 06:35:58;;;;;;;20.98;11.05;;;;;9.30;96550.00;;;;8189153;29;20196;-72
2023/01/07 06:40:07;;;;;;;22.93;11.70;;;;;9.30;96541.00;;;;8185754;29;20295;-75
2023/01/07 06:44:15;;;;;;;19.50;11.33;;;;;9.30;96544.00;;;;8189466;28;20217;-75
2023/01/07 06:48:22;;;;;;;22.67;11.60;;;;;9.40;96533.00;;;;8187616;28;20215;-73
2023/01/07 06:52:28;;;;;;;29.13;13.67;;;;;9.30;96523.00;;;;8189750;28;20322;-78
2023/01/07 06:56:34;;;;;;;26.47;13.60;;;;;9.30;96528.00;;;;8188545;28;20205;-74
2023/01/07 07:00:41;;;;;;;28.35;13.70;;;;;9.30;96520.00;;;;8183283;29;20212;-74
2023/01/07 07:04:47;;;;;;;29.10;13.70;;;;;9.30;96517.00;;;;8183203;29;20733;-76
2023/01/07 07:08:54;;;;;;;33.17;14.20;;;;;9.30;96519.00;;;;8184395;29;20234;-73
2023/01/07 07:12:57;;;;;;;32.97;14.97;;;;;9.30;96526.00;;;;8187825;28;20232;-75
2023/01/07 07:17:02;;;;;;;34.97;14.70;;;;;9.30;96524.00;;;;8179843;29;20219;-77
2023/01/07 07:21:06;;;;;;;34.07;15.60;;;;;9.30;96527.00;;;;8186156;28;20784;-73
2023/01/07 07:25:14;;;;;;;31.10;14.98;;;;;9.30;96522.00;;;;8180401;28;20807;-75
2023/01/07 07:29:17;;;;;;;36.57;16.80;;;;;9.30;96527.00;;;;8172912;28;20206;-72
2023/01/07 07:33:25;;;;;;;32.60;15.47;;;;;9.30;96521.00;;;;8183865;28;20235;-73
2023/01/07 07:37:31;;;;;;;35.75;17.35;;;;;9.30;96523.00;;;;8187816;28;20211;-77
2023/01/07 07:41:34;;;;;;;33.03;16.08;;;;;9.30;96524.00;;;;8190821;28;20211;-74
2023/01/07 07:45:37;;;;;;;32.43;16.87;;;;;9.30;96510.00;;;;8180375;28;20271;-73
2023/01/07 07:49:47;;;;;;;38.20;17.47;;;;;9.40;96514.00;;;;8184507;29;20287;-73
2023/01/07 07:53:50;;;;;;;41.80;19.50;;;;;9.40;96507.00;;;;8178599;28;20235;-71
2023/01/07 07:58:05;;;;;;;42.20;18.27;;;;;9.50;96513.00;;;;8180677;28;20244;-72
2023/01/07 08:02:11;;;;;;;38.30;17.52;;;;;9.50;96501.00;;;;8183470;28;20260;-77
2023/01/07 08:06:30;;;;;;;34.75;19.13;;;;;9.50;96503.00;;;;8180533;28;20196;-75
2023/01/07 08:10:33;;;;;;;35.42;17.33;;;;;9.60;96489.00;;;;8183186;28;20233;-74
2023/01/07 08:14:38;;;;;;;38.70;17.50;;;;;9.60;96492.00;;;;8185063;29;20211;-75
2023/01/07 08:18:42;;;;;;;33.53;16.90;;;;;9.60;96489.00;;;;8183495;29;20263;-77
2023/01/07 08:22:54;;;;;;;35.27;17.30;;;;;9.70;96490.00;;;;8183706;28;20265;-73
2023/01/07 08:26:57;;;;;;;36.00;17.38;;;;;9.70;96483.00;;;;8184343;28;20234;-75
2023/01/07 08:31:02;;;;;;;35.53;17.90;;;;;9.80;96491.00;;;;8175759;28;20801;-73
2023/01/07 08:35:08;;;;;;;37.47;16.73;;;;;9.90;96477.00;;;;8175892;28;20230;-74
2023/01/07 08:39:13;;;;;;;37.03;18.75;;;;;9.90;96475.00;;;;8177801;28;20207;-71
2023/01/07 08:43:22;;;;;;;36.58;17.17;;;;;10.00;96476.00;;;;8178282;28;20211;-71
2023/01/07 08:47:30;;;;;;;33.30;17.10;;;;;10.00;96471.00;;;;8186947;28;20200;-72
2023/01/07 08:51:33;;;;;;;27.67;15.50;;;;;10.10;96462.00;;;;8188298;29;20229;-74
2023/01/07 08:55:42;;;;;;;28.90;15.43;;;;;10.10;96468.00;;;;8186633;29;20226;-74
2023/01/07 08:59:45;;;;;;;30.15;16.02;;;;;10.20;96468.00;;;;8181694;29;20212;-74
2023/01/07 09:03:49;;;;;;;26.98;15.90;;;;;10.20;96460.00;;;;8189906;28;20227;-73
2023/01/07 09:07:55;;;;;;;27.33;15.65;;;;;10.30;96453.00;;;;8188406;29;20263;-73
2023/01/07 09:12:00;;;;;;;25.67;14.90;;;;;10.40;96456.00;;;;8184295;28;20240;-72
2023/01/07 09:16:03;;;;;;;26.25;14.95;;;;;10.50;96448.00;;;;8186288;28;20257;-71
2023/01/07 09:20:08;;;;;;;27.88;14.70;;;;;10.60;96442.00;;;;8183916;28;20200;-73
2023/01/07 09:29:29;;;;;;;23.30;14.02;;;;;10.90;96442.00;;;;8205424;29;20188;-70
2023/01/07 09:34:03;;;;;;;29.05;13.10;;;;;11.00;96446.00;;;;8206058;28;20675;-70
2023/01/07 09:38:40;;;;;;;19.55;12.82;;;;;11.10;96433.00;;;;8205545;28;20625;-70
2023/01/07 09:43:17;;;;;;;20.05;12.35;;;;;11.20;96429.00;;;;8206323;28;20193;-69
2023/01/07 09:48:03;;;;;;;19.95;11.80;;;;;11.40;96422.00;;;;8205956;28;20199;-70
2023/01/07 09:52:36;;;;;;;17.55;10.88;;;;;11.60;96422.00;;;;8206053;28;20227;-70
2023/01/07 09:57:11;;;;;;;16.40;11.30;;;;;11.60;96433.00;;;;8205043;28;20199;-69
2023/01/07 10:01:48;;;;;;;16.35;10.45;;;;;11.80;96420.00;;;;8202766;29;20231;-69
2023/01/07 10:06:11;;;;;;;14.57;9.40;;;;;11.90;96422.00;;;;8205341;28;20637;-68
2023/01/07 10:10:36;;;;;;;13.93;9.50;;;;;12.00;96415.00;;;;8205346;28;20192;-69
2023/01/07 10:15:19;;;;;;;12.50;9.07;;;;;12.10;96411.00;;;;8211012;28;20275;-70
2023/01/07 10:19:48;;;;;;;15.25;8.60;;;;;11.90;96401.00;;;;8203082;28;20201;-70
2023/01/07 10:23:57;;;;;;;15.75;10.20;;;;;11.70;96397.00;;;;8204451;29;20696;-69
2023/01/07 10:28:06;;;;;;;18.45;10.93;;;;;11.60;96394.00;;;;8204886;28;20204;-70
2023/01/07 10:32:36;;;;;;;11.93;8.80;;;;;11.50;96392.00;;;;8201459;29;20258;-71
2023/01/07 10:37:11;;;;;;;12.50;8.13;;;;;11.40;96377.00;;;;8203598;28;20197;-70
2023/01/07 10:41:20;;;;;;;9.40;6.80;;;;;11.50;96369.00;;;;8205015;28;20201;-70
2023/01/07 10:45:54;;;;;;;10.00;7.10;;;;;11.50;96366.00;;;;8203765;29;20194;-70
2023/01/07 10:50:30;;;;;;;11.90;7.43;;;;;11.50;96364.00;;;;8202934;28;20645;-70
2023/01/07 10:55:18;;;;;;;8.73;6.95;;;;;11.40;96359.00;;;;8199823;28;20245;-72
2023/01/07 10:59:25;;;;;;;9.93;7.13;;;;;11.40;96344.00;;;;8186738;28;20202;-72
2023/01/07 11:04:00;;;;;;;9.13;7.32;;;;;11.50;96343.00;;;;8190238;28;20231;-71
2023/01/07 11:13:24;;;;;;;9.48;6.68;;;;;12.00;96326.00;;;;8198784;29;20226;-72
2023/01/07 11:17:37;;;;;;;7.40;6.28;;;;;12.30;96315.00;;;;8196936;28;20241;-71
2023/01/07 11:22:19;;;;;;;7.18;6.05;;;;;12.60;96307.00;;;;8198685;28;20194;-70
2023/01/07 11:26:27;;;;;;;6.63;5.00;;;;;12.90;96299.00;;;;8198512;28;20229;-71
2023/01/07 11:30:34;;;;;;;8.60;5.75;;;;;12.90;96297.00;;;;8196758;29;20651;-71
2023/01/07 11:35:08;;;;;;;6.53;5.45;;;;;12.80;96284.00;;;;8193347;28;20224;-71
2023/01/07 11:39:42;;;;;;;6.18;5.15;;;;;12.80;96281.00;;;;8198098;29;20206;-70
2023/01/07 11:44:18;;;;;;;6.68;5.57;;;;;12.80;96273.00;;;;8201470;28;20231;-71
2023/01/07 11:48:53;;;;;;;9.13;5.82;;;;;12.80;96262.00;;;;8197307;28;20617;-71
2023/01/07 11:53:34;;;;;;;8.75;5.90;;;;;12.80;96255.00;;;;8198424;28;20274;-71
2023/01/07 11:58:12;;;;;;;6.38;5.53;;;;;12.70;96246.00;;;;8197803;29;20195;-70
2023/01/07 12:03:00;;;;;;;7.85;5.55;;;;;12.80;96245.00;;;;8198422;28;20283;-70
2023/01/07 12:07:06;;;;;;;5.13;4.63;;;;;12.80;96237.00;;;;8197302;28;20204;-71
2023/01/07 12:11:40;;;;;;;6.70;5.40;;;;;12.80;96234.00;;;;8197825;28;20197;-70
2023/01/07 12:15:51;;;;;;;6.50;5.68;;;;;12.80;96220.00;;;;8194942;29;20581;-70
2023/01/07 12:20:14;;;;;;;6.40;4.85;;;;;12.90;96221.00;;;;8202137;28;20200;-70
2023/01/07 12:24:36;;;;;;;6.72;5.10;;;;;13.20;96206.00;;;;8203439;28;20200;-70
2023/01/07 12:29:07;;;;;;;14.82;8.65;;;;;13.30;96210.00;;;;8200786;29;20191;-70
2023/01/07 12:33:20;;;;;;;18.92;10.75;;;;;13.30;96206.00;;;;8202794;28;20222;-71
2023/01/07 12:37:31;;;;;;;12.65;7.03;;;;;13.20;96196.00;;;;8203086;28;20191;-70
2023/01/07 12:42:03;;;;;;;8.55;6.43;;;;;13.20;96194.00;;;;8203149;28;20254;-71
2023/01/07 12:46:16;;;;;;;5.20;4.70;;;;;13.20;96195.00;;;;8203348;28;20567;-71
2023/01/07 12:50:44;;;;;;;4.60;4.13;;;;;13.20;96176.00;;;;8202246;28;20205;-71
2023/01/07 12:55:20;;;;;;;5.00;4.47;;;;;12.90;96168.00;;;;8200724;29;20228;-71
2023/01/07 12:59:54;;;;;;;6.07;4.90;;;;;12.70;96167.00;;;;8205032;29;20203;-70
2023/01/07 13:04:41;;;;;;;6.35;4.68;;;;;12.60;96161.00;;;;8200353;28;20224;-70
2023/01/07 13:08:52;;;;;;;4.97;4.47;;;;;12.60;96156.00;;;;8202241;28;20276;-70
2023/01/07 13:12:58;;;;;;;5.47;4.88;;;;;12.60;96157.00;;;;8202706;28;20577;-71
2023/01/07 13:17:39;;;;;;;4.75;4.20;;;;;12.80;96157.00;;;;8202079;28;20273;-71
2023/01/07 13:21:48;;;;;;;6.88;4.72;;;;;12.90;96156.00;;;;8202702;28;20283;-71
2023/01/07 13:26:32;;;;;;;5.20;4.70;;;;;12.80;96162.00;;;;8205546;28;20224;-71
2023/01/07 13:30:45;;;;;;;5.90;4.43;;;;;12.80;96159.00;;;;8204731;28;20701;-71
2023/01/07 13:35:31;;;;;;;5.28;4.43;;;;;12.80;96151.00;;;;8207199;28;20365;-71
2023/01/07 13:40:00;;;;;;;4.70;4.25;;;;;12.70;96151.00;;;;8204956;28;20277;-70
2023/01/07 13:49:43;;;;;;;4.28;3.88;;;;;12.60;96144.00;;;;8206645;29;20222;-71
2023/01/07 13:53:59;;;;;;;6.15;4.43;;;;;12.60;96149.00;;;;8206233;29;20226;-71
2023/01/07 13:58:39;;;;;;;6.82;4.75;;;;;12.50;96139.00;;;;8206239;28;20219;-71
2023/01/07 14:02:57;;;;;;;4.93;3.60;;;;;12.50;96131.00;;;;8204769;28;20385;-71
2023/01/07 14:07:32;;;;;;;4.60;4.20;;;;;12.60;96134.00;;;;8205583;28;20653;-71
2023/01/07 14:11:51;;;;;;;5.00;4.22;;;;;12.50;96126.00;;;;8205795;28;20204;-71
2023/01/07 14:16:06;;;;;;;6.18;4.90;;;;;12.40;96130.00;;;;8206013;28;20724;-71
2023/01/07 14:20:38;;;;;;;6.25;5.10;;;;;12.30;96134.00;;;;8204901;28;20200;-72
2023/01/07 14:25:21;;;;;;;4.80;4.35;;;;;12.10;96131.00;;;;8205424;28;20635;-71
2023/01/07 14:29:45;;;;;;;7.80;5.40;;;;;12.00;96127.00;;;;8201975;28;20195;-71
2023/01/07 14:34:06;;;;;;;7.72;5.53;;;;;11.90;96140.00;;;;8204743;28;20215;-71
2023/01/07 14:38:48;;;;;;;5.57;4.80;;;;;11.80;96131.00;;;;8198104;28;20243;-71
2023/01/07 14:43:28;;;;;;;6.03;5.10;;;;;11.70;96128.00;;;;8204420;28;20200;-71
2023/01/07 14:47:53;;;;;;;5.97;5.03;;;;;11.60;96127.00;;;;8203081;29;20200;-71
2023/01/07 14:52:37;;;;;;;9.88;5.82;;;;;11.50;96123.00;;;;8203751;28;20219;-71
2023/01/07 14:56:51;;;;;;;8.13;5.43;;;;;11.50;96128.00;;;;8195200;28;20368;-71
2023/01/07 15:01:35;;;;;;;8.65;5.82;;;;;11.40;96122.00;;;;8199204;28;20631;-72
2023/01/07 15:06:13;;;;;;;6.43;5.25;;;;;11.20;96115.00;;;;8202227;28;20251;-71
2023/01/07 15:19:44;;;;;;;10.57;7.35;;;;;10.70;96109.00;;;;8202249;29;20231;-70
2023/01/07 15:24:23;;;;;;;13.68;8.27;;;;;10.50;96099.00;;;;8198560;28;20202;-70
2023/01/07 15:29:00;;;;;;;11.07;6.85;;;;;10.20;96099.00;;;;8199664;28;20594;-70
2023/01/07 15:33:31;;;;;;;11.68;7.32;;;;;10.00;96103.00;;;;8203338;28;20624;-71
2023/01/07 15:38:22;;;;;;;9.57;6.75;;;;;9.90;96102.00;;;;8199082;28;20553;-72
2023/01/07 15:42:53;;;;;;;8.50;6.05;;;;;9.70;96104.00;;;;8201550;28;20247;-72
2023/01/07 15:47:29;;;;;;;7.93;5.63;;;;;9.50;96105.00;;;;8200588;28;20196;-72
2023/01/07 15:52:20;;;;;;;8.15;6.20;;;;;9.40;96114.00;;;;8194270;28;20204;-72
2023/01/07 15:56:42;;;;;;;126.55;49.30;;;;;9.30;96114.00;;;;8199803;29;20229;-70
2023/01/07 16:01:17;;;;;;;113.88;71.85;;;;;9.10;96113.00;;;;8203778;28;20549;-70
2023/01/07 16:05:52;;;;;;;11.77;7.72;;;;;8.90;96115.00;;;;8201588;28;20203;-70
2023/01/07 16:09:58;;;;;;;69.20;34.10;;;;;8.80;96112.00;;;;8201521;28;20205;-70
2023/01/07 16:14:04;;;;;;;6.35;5.60;;;;;8.50;96101.00;;;;8202486;28;20232;-70
2023/01/07 16:18:40;;;;;;;7.35;5.30;;;;;8.10;96110.00;;;;8200591;28;20292;-69
2023/01/07 16:23:14;;;;;;;8.88;6.13;;;;;7.60;96104.00;;;;8201651;28;20291;-69
2023/01/07 16:27:52;;;;;;;10.07;6.37;;;;;7.40;96086.00;;;;8201393;28;20564;-70
2023/01/07 16:32:29;;;;;;;6.70;5.17;;;;;7.20;96089.00;;;;8199996;28;20258;-70
2023/01/07 16:37:12;;;;;;;11.63;7.00;;;;;6.90;96067.00;;;;8200841;28;20227;-70
2023/01/07 16:41:43;;;;;;;9.47;6.40;;;;;6.80;96066.00;;;;8201023;28;20196;-70
2023/01/07 16:46:19;;;;;;;13.40;11.10;;;;;7.10;96073.00;;;;8196261;28;20273;-71
2023/01/07 16:50:54;;;;;;;15.30;11.93;;;;;7.30;96081.00;;;;8198157;29;20587;-71
2023/01/07 16:55:34;;;;;;;15.83;7.80;;;;;7.30;96080.00;;;;8201508;28;20259;-70
2023/01/07 17:00:19;;;;;;;13.80;8.80;;;;;7.30;96074.00;;;;8202283;29;20205;-70
2023/01/07 17:04:48;;;;;;;12.57;8.27;;;;;7.30;96078.00;;;;8199363;28;20685;-70
2023/01/07 17:09:26;;;;;;;13.33;8.83;;;;;7.40;96075.00;;;;8208567;28;20204;-70
2023/01/07 17:19:00;;;;;;;17.27;9.83;;;;;7.40;96069.00;;;;8206749;29;20227;-70
2023/01/07 17:23:44;;;;;;;15.97;11.57;;;;;7.40;96082.00;;;;8207191;28;20200;-71
2023/01/07 17:28:18;;;;;;;11.63;7.97;;;;;7.30;96080.00;;;;8203550;28;20203;-69
2023/01/07 17:32:51;;;;;;;10.87;7.63;;;;;7.10;96078.00;;;;8206030;28;20192;-72
2023/01/07 17:37:30;;;;;;;14.20;8.47;;;;;6.90;96075.00;;;;8206912;28;20600;-72
2023/01/07 17:46:43;;;;;;;9.67;6.73;;;;;6.30;96084.00;;;;8206307;29;20196;-72
2023/01/07 17:51:16;;;;;;;13.10;7.83;;;;;5.90;96083.00;;;;8206734;28;20254;-71
2023/01/07 17:55:53;;;;;;;10.93;8.03;;;;;5.70;96084.00;;;;8206191;28;20609;-71
2023/01/07 18:00:35;;;;;;;12.13;7.87;;;;;5.40;96081.00;;;;8205821;28;20277;-71
2023/01/07 18:05:06;;;;;;;11.40;7.93;;;;;5.20;96073.00;;;;8206388;28;20275;-71
2023/01/07 18:09:43;;;;;;;14.67;8.83;;;;;5.00;96072.00;;;;8206515;28;20625;-71
2023/01/07 18:13:46;;;;;;;13.07;9.37;;;;;4.80;96065.00;;;;8205695;28;20239;-70
2023/01/07 18:18:25;;;;;;;15.30;8.60;;;;;4.70;96066.00;;;;8204078;28;20203;-71
2023/01/07 18:22:58;;;;;;;19.30;9.20;;;;;4.50;96060.00;;;;8202529;28;20635;-72
2023/01/07 18:27:35;;;;;;;21.90;10.60;;;;;4.50;96055.00;;;;8201666;28;20247;-71
2023/01/07 18:32:12;;;;;;;16.27;9.97;;;;;4.40;96063.00;;;;8199924;28;20727;-72
2023/01/07 18:36:52;;;;;;;20.83;11.13;;;;;4.30;96058.00;;;;8200483;28;20676;-72
2023/01/07 18:41:26;;;;;;;36.30;17.50;;;;;4.40;96067.00;;;;8199529;29;20298;-71
2023/01/07 18:46:06;;;;;;;21.70;11.40;;;;;4.30;96051.00;;;;8199704;28;20250;-71
2023/01/07 18:50:09;;;;;;;19.20;10.30;;;;;4.20;96067.00;;;;8199517;28;20304;-71
2023/01/07 18:54:46;;;;;;;20.80;11.10;;;;;4.00;96060.00;;;;8198732;28;20322;-71
2023/01/07 18:59:20;;;;;;;24.87;12.97;;;;;3.90;96065.00;;;;8198963;29;20415;-72
2023/01/07 19:03:57;;;;;;;36.43;19.07;;;;;3.90;96062.00;;;;8196830;28;20609;-71
2023/01/07 19:08:34;;;;;;;36.63;17.07;;;;;4.10;96063.00;;;;8198770;28;20300;-72
2023/01/07 19:13:14;;;;;;;29.17;14.63;;;;;4.10;96071.00;;;;8198320;28;20334;-72
2023/01/07 19:17:48;;;;;;;31.57;15.70;;;;;4.10;96058.00;;;;8198691;28;20224;-71
2023/01/07 19:22:25;;;;;;;31.03;13.53;;;;;4.00;96064.00;;;;8203695;28;20515;-71
2023/01/07 19:27:02;;;;;;;24.47;12.67;;;;;4.00;96069.00;;;;8200587;28;20214;-70
2023/01/07 19:31:44;;;;;;;36.10;16.47;;;;;3.90;96061.00;;;;8201054;28;20208;-71
2023/01/07 19:36:14;;;;;;;22.70;12.17;;;;;3.80;96069.00;;;;8203084;28;20220;-71
2023/01/07 19:40:19;;;;;;;24.97;12.40;;;;;3.80;96077.00;;;;8203051;28;20294;-71
2023/01/07 19:44:25;;;;;;;27.07;12.07;;;;;3.70;96088.00;;;;8203079;28;20211;-70
2023/01/07 19:49:12;;;;;;;30.73;15.97;;;;;3.50;96082.00;;;;8202921;28;20288;-71
2023/01/07 19:53:40;;;;;;;41.10;18.10;;;;;3.60;96073.00;;;;8203498;28;20639;-71
2023/01/07 19:58:13;;;;;;;22.17;11.47;;;;;3.60;96068.00;;;;8201787;29;20218;-72
2023/01/07 20:02:50;;;;;;;27.80;13.13;;;;;3.40;96061.00;;;;8200701;29;20219;-71
2023/01/07 20:07:32;;;;;;;27.20;12.77;;;;;3.30;96048.00;;;;8201913;28;20302;-70
2023/01/07 20:12:04;;;;;;;29.23;12.20;;;;;3.10;96055.00;;;;8202344;28;20202;-71
2023/01/07 20:21:41;;;;;;;30.63;14.63;;;;;3.10;96049.00;;;;8201698;29;20360;-70
2023/01/07 20:26:28;;;;;;;31.27;16.03;;;;;3.20;96037.00;;;;8200304;28;20203;-70
2023/01/07 20:30:33;;;;;;;33.00;14.50;;;;;3.10;96041.00;;;;8201900;28;20191;-70
2023/01/07 20:35:10;;;;;;;41.07;16.27;;;;;3.10;96049.00;;;;8197493;28;20223;-70
2023/01/07 20:39:47;;;;;;;43.23;16.73;;;;;3.00;96037.00;;;;8203780;28;20204;-70
2023/01/07 20:43:52;;;;;;;52.93;21.93;;;;;3.00;96031.00;;;;8208608;28;20214;-70
2023/01/07 20:47:58;;;;;;;40.93;16.23;;;;;3.00;96031.00;;;;8208741;28;20208;-69
2023/01/07 20:52:02;;;;;;;48.93;21.97;;;;;3.00;96016.00;;;;8208415;28;20656;-69
2023/01/07 20:56:09;;;;;;;138.77;43.03;;;;;3.10;96010.00;;;;8207419;28;20289;-69
2023/01/07 21:00:14;;;;;;;56.20;17.93;;;;;3.20;96005.00;;;;8206933;28;20208;-69
2023/01/07 21:04:49;;;;;;;63.23;19.77;;;;;3.00;95998.00;;;;8207081;29;20220;-69
2023/01/07 21:09:26;;;;;;;41.53;17.77;;;;;3.20;96005.00;;;;8206855;28;20643;-68
2023/01/07 21:14:04;;;;;;;34.70;15.73;;;;;3.30;95996.00;;;;8206990;28;20242;-67
2023/01/07 21:23:41;;;;;;;35.33;17.10;;;;;3.40;95990.00;;;;8206696;29;20194;-68
2023/01/07 21:28:15;;;;;;;35.03;15.23;;;;;3.50;95994.00;;;;8205968;28;20219;-67
2023/01/07 21:32:19;;;;;;;30.30;14.43;;;;;3.40;95992.00;;;;8205425;28;20251;-67
2023/01/07 21:36:23;;;;;;;32.87;14.93;;;;;3.40;95984.00;;;;8205105;28;20227;-68
2023/01/07 21:40:30;;;;;;;31.93;13.77;;;;;3.40;95986.00;;;;8204948;28;20262;-67
2023/01/07 21:45:01;;;;;;;32.20;13.37;;;;;3.30;95979.00;;;;8204921;28;20646;-67
2023/01/07 21:49:38;;;;;;;30.27;13.60;;;;;3.10;95976.00;;;;8204172;28;20286;-67
2023/01/07 21:54:15;;;;;;;30.77;13.53;;;;;3.00;95982.00;;;;8202168;28;20210;-67
2023/01/07 21:58:56;;;;;;;29.87;13.03;;;;;2.90;95984.00;;;;8205238;28;20227;-67
2023/01/07 22:03:02;;;;;;;76.67;13.53;;;;;2.80;95977.00;;;;8203631;28;20284;-68
2023/01/07 22:07:05;;;;;;;150.37;17.67;;;;;2.70;95974.00;;;;8204985;28;20205;-68
2023/01/07 22:11:42;;;;;;;468.13;31.23;;;;;2.60;95971.00;;;;8202566;29;20201;-68
2023/01/07 22:16:21;;;;;;;396.60;27.50;;;;;2.50;95974.00;;;;8202991;28;20222;-67
2023/01/07 22:26:01;;;;;;;261.17;24.17;;;;;2.40;95962.00;;;;8204544;29;20205;-67